Time,TemperatureF,DewpointF,PressureIn,WindDirection,WindDirectionDegrees,WindSpeedMPH,WindSpeedGustMPH,Humidity,HourlyPrecipIn,Conditions,Clouds,dailyrainin,SoftwareType,DateUTC
2013-01-25 00:09:00,17.3,4.3,30.21,SE,142,5.0,5.0,56,0.00,,,0.00,Wunderground v.1.15,2013-01-25 05:09:00,
2013-01-25 00:19:00,17.2,4.6,30.22,WSW,246,5.0,5.0,57,0.00,,,0.00,Wunderground v.1.15,2013-01-25 05:19:00,
2013-01-25 00:28:00,17.1,4.5,30.22,WNW,300,5.0,5.0,57,0.00,,,0.00,Wunderground v.1.15,2013-01-25 05:28:00,
2013-01-25 00:39:00,17.0,4.4,30.22,SSW,205,6.0,6.0,57,0.00,,,0.00,Wunderground v.1.15,2013-01-25 05:39:00,
2013-01-25 00:49:00,16.9,4.7,30.22,South,171,5.0,5.0,58,0.00,,,0.00,Wunderground v.1.15,2013-01-25 05:49:00,
2013-01-25 00:58:00,17.0,5.1,30.22,ESE,102,5.0,5.0,59,0.00,,,0.00,Wunderground v.1.15,2013-01-25 05:58:00,
2013-01-25 01:08:00,16.9,4.7,30.22,North,355,4.0,5.0,58,0.00,,,0.00,Wunderground v.1.15,2013-01-25 06:08:00,
2013-01-25 01:18:00,16.8,4.6,30.22,WSW,237,4.0,7.0,58,0.00,,,0.00,Wunderground v.1.15,2013-01-25 06:18:00,
2013-01-25 01:29:00,16.7,4.5,30.22,SSE,164,5.0,5.0,58,0.00,,,0.00,Wunderground v.1.15,2013-01-25 06:29:00,
2013-01-25 01:39:00,16.6,5.1,30.23,WSW,238,5.0,5.0,60,0.00,,,0.00,Wunderground v.1.15,2013-01-25 06:39:00,
2013-01-25 01:49:00,16.5,5.0,30.23,NW,317,4.0,4.0,60,0.00,,,0.00,Wunderground v.1.15,2013-01-25 06:49:00,
2013-01-25 01:59:00,16.4,4.9,30.23,NW,323,4.0,5.0,60,0.00,,,0.00,Wunderground v.1.15,2013-01-25 06:59:00,
2013-01-25 02:09:00,16.3,4.8,30.24,SW,221,5.0,5.0,60,0.00,,,0.00,Wunderground v.1.15,2013-01-25 07:09:00,
2013-01-25 02:19:00,16.1,4.6,30.24,NNW,333,4.0,6.0,60,0.00,,,0.00,Wunderground v.1.15,2013-01-25 07:19:00,
2013-01-25 02:29:00,16.1,5.0,30.24,SW,231,3.0,4.0,61,0.00,,,0.00,Wunderground v.1.15,2013-01-25 07:29:00,
2013-01-25 02:39:00,16.0,5.6,30.25,NNE,16,3.0,12.0,63,0.00,,,0.00,Wunderground v.1.15,2013-01-25 07:39:00,
2013-01-25 02:49:00,15.9,5.5,30.25,WSW,238,3.0,3.0,63,0.00,,,0.00,Wunderground v.1.15,2013-01-25 07:49:00,
2013-01-25 02:59:00,15.8,5.4,30.25,WNW,283,3.0,5.0,63,0.00,,,0.00,Wunderground v.1.15,2013-01-25 07:59:00,
2013-01-25 03:09:00,15.9,5.5,30.25,West,269,4.0,4.0,63,0.00,,,0.00,Wunderground v.1.15,2013-01-25 08:09:00,
2013-01-25 03:19:00,15.9,5.5,30.25,North,355,4.0,7.0,63,0.00,,,0.00,Wunderground v.1.15,2013-01-25 08:19:00,
2013-01-25 03:29:00,16.0,6.0,30.25,SSW,202,4.0,4.0,64,0.00,,,0.00,Wunderground v.1.15,2013-01-25 08:29:00,
2013-01-25 03:39:00,15.9,5.5,30.25,West,273,4.0,5.0,63,0.00,,,0.00,Wunderground v.1.15,2013-01-25 08:39:00,
2013-01-25 03:49:00,15.8,5.8,30.24,SW,233,4.0,4.0,64,0.00,,,0.00,Wunderground v.1.15,2013-01-25 08:49:00,
2013-01-25 03:59:00,15.8,6.1,30.24,SSW,202,3.0,3.0,65,0.00,,,0.00,Wunderground v.1.15,2013-01-25 08:59:00,
2013-01-25 04:09:00,15.6,5.9,30.24,WNW,294,4.0,7.0,65,0.00,,,0.00,Wunderground v.1.15,2013-01-25 09:09:00,
2013-01-25 04:19:00,15.5,5.5,30.25,West,259,3.0,3.0,64,0.00,,,0.00,Wunderground v.1.15,2013-01-25 09:19:00,
2013-01-25 04:29:00,15.5,5.5,30.25,NNE,13,4.0,4.0,64,0.00,,,0.00,Wunderground v.1.15,2013-01-25 09:29:00,
2013-01-25 04:39:00,15.5,5.1,30.25,NNE,16,3.0,11.0,63,0.00,,,0.00,Wunderground v.1.15,2013-01-25 09:39:00,
2013-01-25 04:49:00,15.5,5.8,30.25,ESE,123,4.0,4.0,65,0.00,,,0.00,Wunderground v.1.15,2013-01-25 09:49:00,
2013-01-25 04:59:00,15.5,5.8,30.25,SE,128,3.0,3.0,65,0.00,,,0.00,Wunderground v.1.15,2013-01-25 09:59:00,
2013-01-25 05:09:00,15.6,5.9,30.25,WSW,252,4.0,4.0,65,0.00,,,0.00,Wunderground v.1.15,2013-01-25 10:09:00,
2013-01-25 05:19:00,15.6,5.6,30.25,NW,324,4.0,6.0,64,0.00,,,0.00,Wunderground v.1.15,2013-01-25 10:19:00,
2013-01-25 05:29:00,15.7,6.0,30.25,NE,53,4.0,4.0,65,0.00,,,0.00,Wunderground v.1.15,2013-01-25 10:29:00,
2013-01-25 05:39:00,15.6,6.3,30.26,SW,225,3.0,5.0,66,0.00,,,0.00,Wunderground v.1.15,2013-01-25 10:39:00,
2013-01-25 05:48:00,15.7,6.7,30.25,ENE,67,4.0,4.0,67,0.00,,,0.00,Wunderground v.1.15,2013-01-25 10:48:00,
2013-01-25 05:58:00,15.6,6.9,30.25,SW,233,3.0,3.0,68,0.00,,,0.00,Wunderground v.1.15,2013-01-25 10:58:00,
2013-01-25 06:08:00,15.6,6.6,30.25,West,263,2.0,2.0,67,0.00,,,0.00,Wunderground v.1.15,2013-01-25 11:08:00,
2013-01-25 06:18:00,15.8,7.1,30.25,WNW,292,2.0,3.0,68,0.00,,,0.00,Wunderground v.1.15,2013-01-25 11:18:00,
2013-01-25 06:29:00,15.9,6.5,30.25,WNW,289,3.0,4.0,66,0.00,,,0.00,Wunderground v.1.15,2013-01-25 11:29:00,
2013-01-25 06:39:00,15.9,6.5,30.25,WSW,238,3.0,5.0,66,0.00,,,0.00,Wunderground v.1.15,2013-01-25 11:39:00,
2013-01-25 06:49:00,15.9,6.5,30.25,WSW,257,4.0,4.0,66,0.00,,,0.00,Wunderground v.1.15,2013-01-25 11:49:00,
2013-01-25 06:59:00,15.9,7.2,30.25,SW,227,3.0,5.0,68,0.00,,,0.00,Wunderground v.1.15,2013-01-25 11:59:00,
2013-01-25 07:09:00,16.0,7.3,30.26,WSW,237,4.0,4.0,68,0.00,,,0.00,Wunderground v.1.15,2013-01-25 12:09:00,
2013-01-25 07:19:00,15.9,7.2,30.27,SSW,192,2.0,2.0,68,0.00,,,0.00,Wunderground v.1.15,2013-01-25 12:19:00,
2013-01-25 07:29:00,16.0,7.0,30.27,WSW,244,3.0,3.0,67,0.00,,,0.00,Wunderground v.1.15,2013-01-25 12:29:00,
2013-01-25 07:39:00,16.3,7.6,30.27,West,273,3.0,4.0,68,0.00,,,0.00,Wunderground v.1.15,2013-01-25 12:39:00,
2013-01-25 07:49:00,16.4,7.3,30.27,North,349,3.0,3.0,67,0.00,,,0.00,Wunderground v.1.15,2013-01-25 12:49:00,
2013-01-25 07:59:00,16.5,7.4,30.27,West,273,3.0,5.0,67,0.00,,,0.00,Wunderground v.1.15,2013-01-25 12:59:00,
2013-01-25 08:09:00,16.6,7.9,30.27,East,80,3.0,5.0,68,0.00,,,0.00,Wunderground v.1.15,2013-01-25 13:09:00,
2013-01-25 08:19:00,16.6,7.9,30.26,East,92,3.0,4.0,68,0.00,,,0.00,Wunderground v.1.15,2013-01-25 13:19:00,
2013-01-25 08:29:00,16.7,8.0,30.26,WSW,249,3.0,3.0,68,0.00,,,0.00,Wunderground v.1.15,2013-01-25 13:29:00,
2013-01-25 08:39:00,16.6,7.9,30.27,NNW,345,3.0,3.0,68,0.00,,,0.00,Wunderground v.1.15,2013-01-25 13:39:00,
2013-01-25 08:49:00,16.9,7.2,30.25,ENE,78,3.0,5.0,65,0.00,,,0.00,Wunderground v.1.15,2013-01-25 13:49:00,
2013-01-25 08:59:00,17.1,7.7,30.25,SW,225,3.0,3.0,66,0.00,,,0.00,Wunderground v.1.15,2013-01-25 13:59:00,
2013-01-25 09:09:00,17.1,8.0,30.26,WNW,291,3.0,4.0,67,0.00,,,0.00,Wunderground v.1.15,2013-01-25 14:09:00,
2013-01-25 09:19:00,17.2,8.1,30.25,WSW,249,3.0,3.0,67,0.00,,,0.00,Wunderground v.1.15,2013-01-25 14:19:00,
2013-01-25 09:29:00,17.4,8.3,30.25,SSE,168,4.0,4.0,67,0.00,,,0.00,Wunderground v.1.15,2013-01-25 14:29:00,
2013-01-25 09:39:00,17.7,8.6,30.26,South,178,3.0,3.0,67,0.00,,,0.00,Wunderground v.1.15,2013-01-25 14:39:00,
2013-01-25 09:49:00,17.9,8.8,30.26,WNW,286,3.0,3.0,67,0.00,,,0.00,Wunderground v.1.15,2013-01-25 14:49:00,
2013-01-25 09:59:00,18.4,8.9,30.26,SW,226,2.0,2.0,66,0.00,,,0.00,Wunderground v.1.15,2013-01-25 14:59:00,
2013-01-25 10:09:00,18.7,8.5,30.27,West,271,3.0,6.0,64,0.00,,,0.00,Wunderground v.1.15,2013-01-25 15:09:00,
2013-01-25 10:19:00,19.2,8.7,30.27,SSW,200,3.0,3.0,63,0.00,,,0.00,Wunderground v.1.15,2013-01-25 15:19:00,
2013-01-25 10:29:00,19.3,8.4,30.27,West,274,4.0,4.0,62,0.00,,,0.00,Wunderground v.1.15,2013-01-25 15:29:00,
2013-01-25 10:39:00,19.3,7.7,30.26,WSW,249,3.0,5.0,60,0.00,,,0.00,Wunderground v.1.15,2013-01-25 15:39:00,
2013-01-25 10:48:00,19.4,7.4,30.27,SSW,206,3.0,3.0,59,0.00,,,0.00,Wunderground v.1.15,2013-01-25 15:48:00,
2013-01-25 10:59:00,19.7,7.3,30.27,WSW,241,4.0,4.0,58,0.00,,,0.00,Wunderground v.1.15,2013-01-25 15:59:00,
2013-01-25 11:09:00,20.2,8.1,30.26,WSW,250,4.0,4.0,59,0.00,,,0.00,Wunderground v.1.15,2013-01-25 16:09:00,
2013-01-25 11:19:00,20.1,7.3,30.25,NNW,338,4.0,5.0,57,0.00,,,0.00,Wunderground v.1.15,2013-01-25 16:19:00,
2013-01-25 11:29:00,20.2,7.8,30.25,NW,315,3.0,3.0,58,0.00,,,0.00,Wunderground v.1.15,2013-01-25 16:29:00,
2013-01-25 11:40:00,20.4,8.0,30.23,WSW,258,3.0,4.0,58,0.00,,,0.00,Wunderground v.1.15,2013-01-25 16:40:00,
2013-01-25 11:50:00,20.4,8.0,30.22,ENE,64,3.0,5.0,58,0.00,,,0.00,Wunderground v.1.15,2013-01-25 16:50:00,
2013-01-25 11:59:00,20.4,8.0,30.22,NNW,331,3.0,3.0,58,0.00,,,0.00,Wunderground v.1.15,2013-01-25 16:59:00,
2013-01-25 12:09:00,20.4,8.0,30.21,WSW,245,2.0,2.0,58,0.00,,,0.00,Wunderground v.1.15,2013-01-25 17:09:00,
2013-01-25 12:19:00,21.0,8.5,30.20,WSW,249,2.0,2.0,58,0.00,,,0.00,Wunderground v.1.15,2013-01-25 17:19:00,
2013-01-25 12:29:00,21.0,8.5,30.20,WSW,257,3.0,3.0,58,0.00,,,0.00,Wunderground v.1.15,2013-01-25 17:29:00,
2013-01-25 12:39:00,21.5,9.4,30.19,WNW,291,2.0,7.0,59,0.00,,,0.00,Wunderground v.1.15,2013-01-25 17:39:00,
2013-01-25 12:49:00,22.1,9.2,30.18,WSW,246,2.0,2.0,57,0.00,,,0.00,Wunderground v.1.15,2013-01-25 17:49:00,
2013-01-25 12:59:00,22.3,9.0,30.18,West,261,2.0,2.0,56,0.00,,,0.00,Wunderground v.1.15,2013-01-25 17:59:00,
2013-01-25 13:09:00,22.7,9.3,30.16,SSW,210,2.0,2.0,56,0.00,,,0.00,Wunderground v.1.15,2013-01-25 18:09:00,
2013-01-25 13:19:00,23.1,8.9,30.16,NW,306,2.0,2.0,54,0.00,,,0.00,Wunderground v.1.15,2013-01-25 18:19:00,
2013-01-25 13:29:00,22.8,8.6,30.16,SW,226,2.0,2.0,54,0.00,,,0.00,Wunderground v.1.15,2013-01-25 18:29:00,
2013-01-25 13:39:00,22.8,9.0,30.15,SW,227,2.0,2.0,55,0.00,,,0.00,Wunderground v.1.15,2013-01-25 18:39:00,
2013-01-25 13:49:00,22.9,9.5,30.14,SW,223,2.0,2.0,56,0.00,,,0.00,Wunderground v.1.15,2013-01-25 18:49:00,
2013-01-25 13:59:00,22.9,9.5,30.14,WSW,252,2.0,4.0,56,0.00,,,0.00,Wunderground v.1.15,2013-01-25 18:59:00,
2013-01-25 14:09:00,23.1,9.3,30.13,NNW,330,2.0,2.0,55,0.00,,,0.00,Wunderground v.1.15,2013-01-25 19:09:00,
2013-01-25 14:19:00,23.3,9.1,30.13,WSW,246,1.0,1.0,54,0.00,,,0.00,Wunderground v.1.15,2013-01-25 19:19:00,
2013-01-25 14:29:00,23.1,8.1,30.13,WSW,246,1.0,1.0,52,0.00,,,0.00,Wunderground v.1.15,2013-01-25 19:29:00,
2013-01-25 14:39:00,22.8,8.2,30.13,NE,54,1.0,1.0,53,0.00,,,0.00,Wunderground v.1.15,2013-01-25 19:39:00,
2013-01-25 14:49:00,22.6,8.4,30.12,WSW,240,2.0,4.0,54,0.00,,,0.00,Wunderground v.1.15,2013-01-25 19:49:00,
2013-01-25 14:59:00,22.5,8.7,30.12,WSW,256,2.0,2.0,55,0.00,,,0.00,Wunderground v.1.15,2013-01-25 19:59:00,
2013-01-25 15:09:00,22.5,7.9,30.11,WSW,248,2.0,3.0,53,0.00,,,0.00,Wunderground v.1.15,2013-01-25 20:09:00,
2013-01-25 15:19:00,22.6,8.8,30.11,West,279,1.0,1.0,55,0.00,,,0.00,Wunderground v.1.15,2013-01-25 20:19:00,
2013-01-25 15:29:00,22.6,8.0,30.11,West,265,1.0,1.0,53,0.00,,,0.00,Wunderground v.1.15,2013-01-25 20:29:00,
2013-01-25 15:39:00,22.8,8.2,30.09,WSW,254,0.0,1.0,53,0.00,,,0.00,Wunderground v.1.15,2013-01-25 20:39:00,
2013-01-25 15:48:00,22.6,8.4,30.09,WSW,248,1.0,1.0,54,0.00,,,0.00,Wunderground v.1.15,2013-01-25 20:48:00,
2013-01-25 15:58:00,22.5,8.7,30.09,West,271,1.0,1.0,55,0.00,,,0.00,Wunderground v.1.15,2013-01-25 20:58:00,
2013-01-25 16:08:00,22.4,8.7,30.08,West,273,0.0,0.0,55,0.00,,,0.00,Wunderground v.1.15,2013-01-25 21:08:00,
2013-01-25 16:18:00,22.4,9.1,30.09,WSW,252,0.0,0.0,56,0.00,,,0.00,Wunderground v.1.15,2013-01-25 21:18:00,
2013-01-25 16:29:00,22.2,9.3,30.09,WSW,258,1.0,1.0,57,0.00,,,0.00,Wunderground v.1.15,2013-01-25 21:29:00,
2013-01-25 16:39:00,22.1,9.2,30.08,WSW,256,1.0,1.0,57,0.00,,,0.00,Wunderground v.1.15,2013-01-25 21:39:00,
2013-01-25 16:49:00,22.0,9.1,30.09,West,265,1.0,1.0,57,0.00,,,0.00,Wunderground v.1.15,2013-01-25 21:49:00,
2013-01-25 16:59:00,22.0,9.5,30.09,WSW,254,0.0,1.0,58,0.00,,,0.00,Wunderground v.1.15,2013-01-25 21:59:00,
2013-01-25 17:09:00,21.9,9.7,30.08,WSW,252,1.0,1.0,59,0.00,,,0.00,Wunderground v.1.15,2013-01-25 22:09:00,
2013-01-25 17:19:00,21.8,9.3,30.07,SW,234,1.0,1.0,58,0.00,,,0.00,Wunderground v.1.15,2013-01-25 22:19:00,
2013-01-25 17:29:00,21.9,9.7,30.07,SW,221,2.0,2.0,59,0.00,,,0.00,Wunderground v.1.15,2013-01-25 22:29:00,
2013-01-25 17:39:00,21.9,9.4,30.08,SW,229,2.0,2.0,58,0.00,,,0.00,Wunderground v.1.15,2013-01-25 22:39:00,
2013-01-25 17:49:00,21.9,9.4,30.07,SW,229,2.0,2.0,58,0.00,,,0.00,Wunderground v.1.15,2013-01-25 22:49:00,
2013-01-25 17:59:00,21.8,9.3,30.07,WSW,246,2.0,2.0,58,0.00,,,0.00,Wunderground v.1.15,2013-01-25 22:59:00,
2013-01-25 18:09:00,21.7,9.2,30.06,SW,225,1.0,1.0,58,0.00,,,0.00,Wunderground v.1.15,2013-01-25 23:09:00,
2013-01-25 18:19:00,21.7,9.2,30.05,South,187,0.0,1.0,58,0.00,,,0.00,Wunderground v.1.15,2013-01-25 23:19:00,
2013-01-25 18:29:00,21.8,10.0,30.05,West,260,1.0,1.0,60,0.00,,,0.00,Wunderground v.1.15,2013-01-25 23:29:00,
2013-01-25 18:39:00,21.8,10.0,30.05,SSW,213,1.0,1.0,60,0.00,,,0.00,Wunderground v.1.15,2013-01-25 23:39:00,
2013-01-25 18:49:00,21.7,10.7,30.04,South,190,1.0,4.0,62,0.00,,,0.00,Wunderground v.1.15,2013-01-25 23:49:00,
2013-01-25 18:59:00,21.6,11.6,30.04,SSW,195,2.0,2.0,65,0.00,,,0.00,Wunderground v.1.15,2013-01-25 23:59:00,
2013-01-25 19:09:00,21.2,12.6,30.03,SW,229,2.0,2.0,69,0.00,,,0.00,Wunderground v.1.15,2013-01-26 00:09:00,
2013-01-25 19:19:00,20.9,13.0,30.02,West,261,1.0,1.0,71,0.00,,,0.00,Wunderground v.1.15,2013-01-26 00:19:00,
2013-01-25 19:29:00,20.8,13.2,30.02,NNE,14,1.0,1.0,72,0.00,,,0.00,Wunderground v.1.15,2013-01-26 00:29:00,
2013-01-25 19:39:00,21.1,13.5,30.01,North,5,1.0,1.0,72,0.00,,,0.00,Wunderground v.1.15,2013-01-26 00:39:00,
2013-01-25 19:49:00,21.1,14.1,30.00,North,5,1.0,1.0,74,0.00,,,0.00,Wunderground v.1.15,2013-01-26 00:49:00,
2013-01-25 19:59:00,21.0,14.6,30.00,North,5,1.0,1.0,76,0.00,,,0.00,Wunderground v.1.15,2013-01-26 00:59:00,
2013-01-25 20:09:00,21.0,15.8,30.00,North,5,1.0,3.0,80,0.00,,,0.00,Wunderground v.1.15,2013-01-26 01:09:00,
2013-01-25 20:19:00,20.9,16.5,30.00,North,5,1.0,1.0,83,0.00,,,0.00,Wunderground v.1.15,2013-01-26 01:19:00,
2013-01-25 20:29:00,20.9,17.1,30.00,North,5,1.0,1.0,85,0.00,,,0.00,Wunderground v.1.15,2013-01-26 01:29:00,
2013-01-25 20:39:00,20.8,17.3,30.00,North,5,2.0,2.0,86,0.00,,,0.00,Wunderground v.1.15,2013-01-26 01:39:00,
2013-01-25 20:48:00,20.9,17.6,29.99,North,5,0.0,0.0,87,0.00,,,0.00,Wunderground v.1.15,2013-01-26 01:48:00,
2013-01-25 20:58:00,20.8,17.5,29.99,North,5,0.0,0.0,87,0.00,,,0.00,Wunderground v.1.15,2013-01-26 01:58:00,
2013-01-25 21:08:00,20.9,17.9,29.99,North,5,0.0,1.0,88,0.00,,,0.00,Wunderground v.1.15,2013-01-26 02:08:00,
2013-01-25 21:18:00,20.9,17.9,29.98,North,5,1.0,1.0,88,0.00,,,0.00,Wunderground v.1.15,2013-01-26 02:18:00,
2013-01-25 21:30:00,21.0,18.0,29.98,North,5,0.0,0.0,88,0.00,,,0.00,Wunderground v.1.15,2013-01-26 02:30:00,
2013-01-25 21:40:00,21.1,18.4,29.97,North,5,0.0,0.0,89,0.00,,,0.00,Wunderground v.1.15,2013-01-26 02:40:00,
2013-01-25 21:49:00,21.1,18.4,29.97,North,5,0.0,0.0,89,0.00,,,0.00,Wunderground v.1.15,2013-01-26 02:49:00,
2013-01-25 21:59:00,21.3,18.6,29.97,North,9,1.0,1.0,89,0.00,,,0.00,Wunderground v.1.15,2013-01-26 02:59:00,
2013-01-25 22:09:00,21.3,18.6,29.96,North,5,1.0,1.0,89,0.00,,,0.00,Wunderground v.1.15,2013-01-26 03:09:00,
2013-01-25 22:19:00,21.5,18.8,29.95,North,5,1.0,2.0,89,0.00,,,0.00,Wunderground v.1.15,2013-01-26 03:19:00,
2013-01-25 22:29:00,20.9,18.4,29.95,SW,230,0.0,0.0,90,0.00,,,0.00,Wunderground v.1.15,2013-01-26 03:29:00,
2013-01-25 22:39:00,20.7,18.2,29.95,SW,230,0.0,2.0,90,0.00,,,0.00,Wunderground v.1.15,2013-01-26 03:39:00,
2013-01-25 22:49:00,20.4,17.9,29.95,SW,232,1.0,1.0,90,0.00,,,0.00,Wunderground v.1.15,2013-01-26 03:49:00,
2013-01-25 22:59:00,20.1,17.6,29.95,WSW,257,1.0,1.0,90,0.00,,,0.00,Wunderground v.1.15,2013-01-26 03:59:00,
2013-01-25 23:09:00,20.0,17.8,29.94,WSW,248,0.0,0.0,91,0.00,,,0.00,Wunderground v.1.15,2013-01-26 04:09:00,
2013-01-25 23:19:00,19.8,17.3,29.93,SW,226,0.0,1.0,90,0.00,,,0.00,Wunderground v.1.15,2013-01-26 04:19:00,
2013-01-25 23:29:00,19.3,16.8,29.93,West,264,0.0,0.0,90,0.00,,,0.00,Wunderground v.1.15,2013-01-26 04:29:00,
2013-01-25 23:39:00,19.3,17.1,29.94,SW,225,1.0,1.0,91,0.00,,,0.00,Wunderground v.1.15,2013-01-26 04:39:00,
2013-01-25 23:49:00,19.8,17.6,29.94,WSW,256,1.0,1.0,91,0.00,,,0.00,Wunderground v.1.15,2013-01-26 04:49:00,
2013-01-25 23:59:00,19.7,17.0,29.94,WSW,243,1.0,1.0,89,0.00,,,0.00,Wunderground v.1.15,2013-01-26 04:59:00,